Time;durP1;ratioP1;P1;durP2;ratioP2;P2;SDS_P1;SDS_P2;PMS_P1;PMS_P2;Temp;Humidity;BMP_temperature;BMP_pressure;BME280_temperature;BME280_humidity;BME280_pressure;Samples;Min_cycle;Max_cycle;Signal;HPM_P1;HPM_P2
2022/12/02 07:04:59;;;;;;;;;59.25;44.75;;;;;6.76;100.00;102005.00;5773685;23;49982;-67
2022/12/02 07:07:29;;;;;;;;;45.50;39.50;;;;;6.96;100.00;102041.78;5044268;28;50669;-68
2022/12/02 07:09:57;;;;;;;;;46.75;40.75;;;;;6.89;100.00;102020.53;5031310;28;50012;-68
2022/12/02 07:12:36;;;;;;;;;58.50;47.75;;;;;7.00;100.00;102033.28;5036048;28;49728;-67
2022/12/02 07:15:13;;;;;;;;;45.00;41.00;;;;;6.95;100.00;102019.06;5035713;28;49805;-65
2022/12/02 07:17:41;;;;;;;;;56.00;44.50;;;;;6.81;100.00;102016.59;5034788;28;49798;-67
2022/12/02 07:20:06;;;;;;;;;52.25;43.00;;;;;6.77;100.00;102040.72;5051860;28;49919;-66
2022/12/02 07:22:59;;;;;;;;;55.75;42.25;;;;;6.82;100.00;102041.88;5055005;28;50335;-67
2022/12/02 07:25:35;;;;;;;;;57.25;44.75;;;;;6.83;100.00;102041.06;5057911;28;49886;-67
2022/12/02 07:28:21;;;;;;;;;60.75;48.00;;;;;6.76;100.00;102030.22;5056032;28;49850;-67
2022/12/02 07:30:55;;;;;;;;;56.50;44.75;;;;;6.92;100.00;102019.78;5054257;28;50031;-66
2022/12/02 07:33:20;;;;;;;;;54.75;45.50;;;;;6.59;100.00;101962.31;5051110;28;50002;-67
2022/12/02 07:35:46;;;;;;;;;62.25;47.25;;;;;6.87;100.00;102018.66;5058906;28;49957;-67
2022/12/02 07:38:11;;;;;;;;;63.50;46.00;;;;;6.67;100.00;101986.22;5058254;28;49511;-69
2022/12/02 07:40:37;;;;;;;;;60.25;46.25;;;;;6.72;100.00;102002.13;5037914;28;50209;-68
2022/12/02 07:43:02;;;;;;;;;59.50;46.00;;;;;6.85;100.00;102041.13;5038358;28;50662;-69
2022/12/02 07:45:27;;;;;;;;;61.50;46.25;;;;;6.73;100.00;102020.47;5047462;28;49182;-71
2022/12/02 07:47:52;;;;;;;;;56.25;42.75;;;;;6.59;100.00;102000.56;5039609;28;50147;-70
2022/12/02 07:50:18;;;;;;;;;60.75;49.50;;;;;6.89;100.00;102046.63;5022768;28;50018;-68
2022/12/02 07:52:43;;;;;;;;;59.25;47.00;;;;;6.82;100.00;102023.59;5049738;28;50106;-68
2022/12/02 07:55:09;;;;;;;;;65.50;45.75;;;;;6.86;100.00;102036.03;5042674;28;49563;-68
2022/12/02 07:57:34;;;;;;;;;55.50;43.50;;;;;6.79;100.00;102033.88;5058788;28;49669;-70
2022/12/02 07:59:59;;;;;;;;;70.00;53.00;;;;;6.79;100.00;102033.00;5051616;28;49868;-70
2022/12/02 08:02:25;;;;;;;;;57.50;44.00;;;;;6.57;100.00;102002.19;5037391;28;57558;-70
2022/12/02 08:04:50;;;;;;;;;58.25;45.25;;;;;6.83;100.00;102040.16;5057938;28;49571;-70
2022/12/02 08:07:15;;;;;;;;;68.00;46.50;;;;;6.51;100.00;101974.03;5054026;28;49857;-70
2022/12/02 08:09:41;;;;;;;;;67.75;49.50;;;;;6.82;100.00;102038.38;5050778;28;49986;-69
2022/12/02 08:12:06;;;;;;;;;57.50;46.50;;;;;6.57;100.00;101999.56;5054072;28;49815;-69
2022/12/02 08:14:31;;;;;;;;;69.00;47.00;;;;;6.64;100.00;102011.22;5057297;28;59079;-69
2022/12/02 08:16:57;;;;;;;;;67.25;49.25;;;;;6.80;100.00;102033.06;5052783;28;50201;-69
2022/12/02 08:19:22;;;;;;;;;58.50;47.25;;;;;6.81;100.00;102034.84;5057131;28;49830;-69
2022/12/02 08:21:48;;;;;;;;;67.00;52.25;;;;;6.84;100.00;102040.25;5053164;28;50298;-69
2022/12/02 08:24:13;;;;;;;;;68.50;51.00;;;;;6.82;100.00;102041.88;5053619;28;49718;-71
2022/12/02 08:26:39;;;;;;;;;56.25;48.50;;;;;6.60;100.00;102018.91;5050139;28;49854;-70
2022/12/02 08:29:04;;;;;;;;;58.25;44.50;;;;;6.49;100.00;102006.97;5053221;28;49559;-70
2022/12/02 08:31:29;;;;;;;;;63.50;50.25;;;;;6.55;100.00;102035.09;5057279;28;49567;-70
2022/12/02 08:33:55;;;;;;;;;58.75;44.75;;;;;6.67;100.00;102054.06;5051097;28;49891;-68
2022/12/02 08:36:21;;;;;;;;;64.50;52.00;;;;;6.68;100.00;102048.03;5052963;28;50135;-69
2022/12/02 08:38:47;;;;;;;;;59.50;47.50;;;;;6.72;100.00;102042.16;5057551;28;49649;-68
2022/12/02 08:41:14;;;;;;;;;66.75;49.75;;;;;6.63;100.00;102022.47;5052233;28;50923;-68
2022/12/02 08:43:40;;;;;;;;;67.50;52.00;;;;;6.78;100.00;102019.03;5029158;28;50178;-71
2022/12/02 08:46:06;;;;;;;;;65.25;49.00;;;;;6.71;100.00;101995.13;5040019;28;50012;-69
2022/12/02 08:48:31;;;;;;;;;61.25;51.25;;;;;6.92;100.00;102042.38;5043019;28;49883;-67
2022/12/02 08:50:57;;;;;;;;;65.50;51.75;;;;;6.66;100.00;102002.69;5037420;28;50464;-68
2022/12/02 08:53:23;;;;;;;;;67.50;51.25;;;;;6.64;100.00;102016.44;5039652;28;50104;-68
2022/12/02 08:55:49;;;;;;;;;57.50;48.25;;;;;6.60;100.00;102021.50;5048925;28;49720;-68
2022/12/02 08:58:14;;;;;;;;;62.00;45.25;;;;;6.57;100.00;102023.94;5038342;28;50216;-68
2022/12/02 09:00:40;;;;;;;;;56.75;45.75;;;;;6.48;100.00;102005.16;5038211;28;50531;-67
2022/12/02 09:03:06;;;;;;;;;72.75;56.50;;;;;6.62;100.00;102005.94;5041785;28;49842;-68
2022/12/02 09:05:33;;;;;;;;;66.00;54.00;;;;;6.78;100.00;102025.97;5038146;28;50926;-68
2022/12/02 09:07:58;;;;;;;;;64.75;51.25;;;;;6.73;100.00;102014.34;5035006;28;49752;-67
2022/12/02 09:10:24;;;;;;;;;62.00;47.50;;;;;6.67;100.00;102004.50;5039028;28;49811;-67
2022/12/02 09:12:49;;;;;;;;;68.50;51.50;;;;;6.67;100.00;102024.47;5034700;28;49908;-67
2022/12/02 09:15:14;;;;;;;;;70.00;52.25;;;;;6.47;100.00;102002.47;5038139;28;49782;-67
2022/12/02 09:17:40;;;;;;;;;68.00;54.75;;;;;6.51;100.00;101989.69;5038017;28;49720;-67
2022/12/02 09:20:06;;;;;;;;;69.00;50.75;;;;;6.72;100.00;102018.69;5032960;28;50605;-67
2022/12/02 09:22:31;;;;;;;;;75.00;54.50;;;;;6.74;100.00;102019.66;5040915;28;49953;-67
2022/12/02 09:24:57;;;;;;;;;61.25;47.50;;;;;6.76;100.00;102023.28;5047739;28;49777;-68
2022/12/02 09:27:22;;;;;;;;;70.00;55.00;;;;;6.81;100.00;102015.69;5031228;28;49834;-67
2022/12/02 09:29:48;;;;;;;;;71.75;52.25;;;;;6.81;100.00;102011.38;5048695;28;50192;-68
2022/12/02 09:32:13;;;;;;;;;68.00;53.25;;;;;6.74;100.00;102022.28;5052253;28;50055;-68
2022/12/02 09:34:38;;;;;;;;;59.25;49.25;;;;;6.74;100.00;102022.28;5052287;28;49950;-68
2022/12/02 09:37:04;;;;;;;;;69.50;51.25;;;;;6.86;100.00;102014.25;5052154;28;54745;-68
2022/12/02 09:39:29;;;;;;;;;66.75;51.00;;;;;6.84;100.00;102011.53;5052229;28;50728;-68
2022/12/02 09:41:54;;;;;;;;;63.00;51.50;;;;;6.89;100.00;102011.81;5051923;28;49815;-68
2022/12/02 09:44:20;;;;;;;;;66.50;51.00;;;;;6.89;100.00;102015.31;5036728;28;49747;-67
2022/12/02 09:46:45;;;;;;;;;72.50;54.25;;;;;6.99;100.00;102001.06;5032868;28;50081;-68
2022/12/02 09:49:11;;;;;;;;;66.00;48.75;;;;;7.02;100.00;102005.53;5036194;28;50464;-69
2022/12/02 09:51:36;;;;;;;;;65.25;52.50;;;;;7.12;100.00;102002.59;5048206;28;50170;-68
2022/12/02 09:54:02;;;;;;;;;76.50;55.00;;;;;7.04;100.00;101963.03;5034312;28;50909;-69
2022/12/02 09:56:29;;;;;;;;;62.25;51.75;;;;;7.25;100.00;101993.75;5042364;28;49959;-69
2022/12/02 09:58:55;;;;;;;;;62.25;50.50;;;;;6.97;100.00;101976.59;5041356;28;50476;-69
2022/12/02 10:01:21;;;;;;;;;63.75;50.25;;;;;6.87;100.00;101964.75;5038388;28;49920;-70
2022/12/02 10:03:48;;;;;;;;;72.00;52.00;;;;;7.20;100.00;101987.38;5033811;28;49874;-68
2022/12/02 10:06:22;;;;;;;;;67.50;49.75;;;;;7.19;100.00;101996.91;5031387;28;50029;-68
2022/12/02 10:08:49;;;;;;;;;74.00;52.50;;;;;7.08;100.00;101996.34;5037556;28;49781;-68
2022/12/02 10:11:22;;;;;;;;;75.25;53.75;;;;;6.92;100.00;101978.03;5036524;28;49784;-71
2022/12/02 10:13:48;;;;;;;;;60.00;46.75;;;;;7.10;100.00;101996.41;5048625;28;49737;-68
2022/12/02 10:16:14;;;;;;;;;72.25;54.00;;;;;7.08;100.00;101988.50;5043330;28;49728;-67
2022/12/02 10:18:41;;;;;;;;;68.25;53.75;;;;;7.05;100.00;101990.97;5064631;28;51159;-66
2022/12/02 10:21:06;;;;;;;;;64.75;54.00;;;;;6.62;100.00;101937.19;5045720;28;49554;-65
2022/12/02 10:23:32;;;;;;;;;74.25;56.00;;;;;7.02;100.00;101997.69;5043732;28;49943;-66
2022/12/02 10:26:06;;;;;;;;;69.00;55.50;;;;;7.05;100.00;101987.44;5049399;28;49550;-64
2022/12/02 10:28:34;;;;;;;;;67.75;53.50;;;;;7.14;100.00;101993.13;5052856;28;49656;-64
2022/12/02 10:31:07;;;;;;;;;69.75;53.50;;;;;6.79;100.00;101946.84;5041095;28;49658;-64
2022/12/02 10:33:38;;;;;;;;;72.00;56.25;;;;;7.00;100.00;101981.97;5042774;28;49649;-66
2022/12/02 10:36:05;;;;;;;;;72.50;51.50;;;;;6.57;100.00;101879.56;5051557;28;49401;-69
2022/12/02 10:38:43;;;;;;;;;70.25;54.00;;;;;7.25;100.00;101972.84;5047684;28;50718;-67
2022/12/02 10:41:14;;;;;;;;;71.00;54.50;;;;;7.37;100.00;101971.78;5058764;28;49259;-67
2022/12/02 10:43:50;;;;;;;;;70.50;55.25;;;;;7.46;100.00;101967.03;5049752;28;49862;-67
2022/12/02 10:46:18;;;;;;;;;68.00;53.75;;;;;7.55;100.00;101958.78;5036621;28;49985;-68
2022/12/02 10:48:43;;;;;;;;;72.50;54.25;;;;;7.36;100.00;101936.03;5043704;28;50376;-64
2022/12/02 10:51:14;;;;;;;;;67.50;50.00;;;;;7.44;100.00;101945.16;5036559;28;49745;-68
2022/12/02 10:53:40;;;;;;;;;62.00;48.50;;;;;7.36;100.00;101936.03;5036855;28;49777;-66
2022/12/02 10:56:06;;;;;;;;;69.50;53.50;;;;;7.45;100.00;101940.84;5027157;28;49840;-66
2022/12/02 10:58:32;;;;;;;;;63.25;50.75;;;;;7.41;100.00;101941.47;5038180;28;50502;-66
2022/12/02 11:00:58;;;;;;;;;71.75;55.75;;;;;7.44;100.00;101941.66;5031718;28;49612;-65
2022/12/02 11:03:24;;;;;;;;;66.25;51.25;;;;;7.24;100.00;101901.44;5034182;28;49762;-67
2022/12/02 11:05:51;;;;;;;;;65.00;49.75;;;;;7.35;100.00;101909.81;5035570;28;50079;-67
2022/12/02 11:08:24;;;;;;;;;70.00;54.50;;;;;7.56;100.00;101934.44;5030452;28;50257;-68
2022/12/02 11:11:06;;;;;;;;;62.25;47.00;;;;;7.58;100.00;101934.53;5031994;28;49789;-69
2022/12/02 11:13:51;;;;;;;;;64.25;48.25;;;;;7.62;100.00;101931.22;5032095;28;49780;-67
2022/12/02 11:16:25;;;;;;;;;68.50;51.25;;;;;7.59;100.00;101925.84;5045437;28;49872;-67
2022/12/02 11:19:22;;;;;;;;;67.50;53.25;;;;;7.63;100.00;101920.00;5050395;28;50325;-67
2022/12/02 11:21:48;;;;;;;;;60.00;45.00;;;;;7.64;100.00;101916.56;5050954;28;49704;-67
2022/12/02 11:24:22;;;;;;;;;67.25;54.00;;;;;7.58;100.00;101922.34;5051173;28;49734;-67
2022/12/02 11:27:01;;;;;;;;;62.75;50.50;;;;;7.56;100.00;101915.25;5045017;28;49721;-67
2022/12/02 11:29:34;;;;;;;;;70.50;56.25;;;;;7.60;100.00;101910.25;5045398;28;49922;-67
2022/12/02 11:32:20;;;;;;;;;65.75;51.00;;;;;7.56;100.00;101910.03;5050689;28;49875;-67
2022/12/02 11:34:51;;;;;;;;;62.75;50.00;;;;;7.54;100.00;101901.22;4991497;28;50025;-67
2022/12/02 11:37:28;;;;;;;;;65.75;49.00;;;;;7.50;100.00;101904.47;5050884;28;49727;-67
2022/12/02 11:39:56;;;;;;;;;65.50;53.50;;;;;7.55;100.00;101906.53;5050439;28;49844;-67
2022/12/02 11:42:24;;;;;;;;;72.25;54.50;;;;;7.52;100.00;101900.22;5050779;28;49652;-67
2022/12/02 11:44:51;;;;;;;;;64.75;53.00;;;;;7.56;100.00;101897.88;5051048;28;50019;-68
2022/12/02 11:47:29;;;;;;;;;66.75;52.00;;;;;7.47;100.00;101900.91;5050875;28;49756;-67
2022/12/02 11:50:11;;;;;;;;;72.75;54.75;;;;;7.43;100.00;101882.34;5049884;28;49835;-67
2022/12/02 11:52:39;;;;;;;;;69.00;49.00;;;;;7.39;100.00;101880.41;5050502;28;49753;-67
2022/12/02 11:55:16;;;;;;;;;72.00;54.75;;;;;7.37;100.00;101887.28;5050039;28;49859;-67
2022/12/02 11:57:54;;;;;;;;;65.50;53.25;;;;;7.35;100.00;101892.44;5050639;28;49791;-67
2022/12/02 12:00:23;;;;;;;;;68.00;54.25;;;;;7.31;100.00;101885.25;5050581;28;50567;-68
2022/12/02 12:03:15;;;;;;;;;74.50;55.25;;;;;7.30;100.00;101883.44;5050281;28;49773;-67
2022/12/02 12:05:43;;;;;;;;;71.25;54.00;;;;;7.26;100.00;101873.69;5050284;28;49804;-66
2022/12/02 12:08:08;;;;;;;;;67.25;49.50;;;;;7.31;100.00;101873.91;5044280;28;49783;-67
2022/12/02 12:10:38;;;;;;;;;80.75;59.25;;;;;7.29;100.00;101873.81;5035974;28;50817;-68
2022/12/02 12:13:14;;;;;;;;;70.00;55.50;;;;;7.32;100.00;101862.63;5039645;28;49804;-66
2022/12/02 12:15:57;;;;;;;;;60.00;44.50;;;;;6.97;100.00;101811.22;5031647;28;49740;-67
2022/12/02 12:18:42;;;;;;;;;61.25;48.75;;;;;7.18;100.00;101859.31;5032832;28;50129;-67
2022/12/02 12:21:08;;;;;;;;;58.00;47.75;;;;;7.11;100.00;101855.47;5037809;28;50309;-67
2022/12/02 12:23:36;;;;;;;;;77.75;57.75;;;;;6.90;100.00;101825.66;5028852;28;50251;-67
2022/12/02 12:26:04;;;;;;;;;61.75;52.25;;;;;7.08;100.00;101854.44;5052621;28;49653;-67
2022/12/02 12:28:35;;;;;;;;;72.00;54.00;;;;;6.88;100.00;101809.03;5052006;28;49726;-74
2022/12/02 12:31:03;;;;;;;;;62.50;50.50;;;;;7.07;100.00;101839.59;5049895;28;51282;-69
2022/12/02 12:33:28;;;;;;;;;66.25;51.75;;;;;7.02;100.00;101841.06;5041118;28;49835;-68
2022/12/02 12:35:55;;;;;;;;;67.75;51.00;;;;;7.02;100.00;101841.06;5030832;28;49630;-67
2022/12/02 12:38:21;;;;;;;;;69.00;53.00;;;;;7.09;100.00;101828.41;5032055;28;49742;-66
2022/12/02 12:40:47;;;;;;;;;69.00;54.25;;;;;6.99;100.00;101800.03;5030419;28;49992;-66
2022/12/02 12:43:13;;;;;;;;;57.75;46.25;;;;;7.07;100.00;101819.59;5030706;28;49592;-67
2022/12/02 12:45:38;;;;;;;;;61.50;49.75;;;;;7.13;100.00;101819.00;5030736;28;49931;-67
2022/12/02 12:48:03;;;;;;;;;66.75;53.00;;;;;7.13;100.00;101806.84;5029482;28;62092;-71
2022/12/02 12:50:29;;;;;;;;;69.00;53.00;;;;;7.23;100.00;101813.44;5030410;28;49740;-65
2022/12/02 12:52:54;;;;;;;;;70.00;53.25;;;;;7.28;100.00;101769.28;5037141;28;49744;-65
2022/12/02 12:55:19;;;;;;;;;67.50;49.25;;;;;7.46;100.00;101783.25;5043894;28;49642;-66
2022/12/02 12:57:45;;;;;;;;;70.00;54.25;;;;;7.50;100.00;101792.13;5047099;28;49273;-63
2022/12/02 13:00:11;;;;;;;;;66.50;53.25;;;;;7.40;100.00;101796.00;5017070;28;68797;-69
2022/12/02 13:02:36;;;;;;;;;73.25;56.75;;;;;7.42;100.00;101796.97;5031445;28;49956;-66
2022/12/02 13:05:01;;;;;;;;;75.75;53.50;;;;;7.38;100.00;101782.88;5029706;28;52714;-63
2022/12/02 13:07:27;;;;;;;;;65.75;52.50;;;;;7.47;100.00;101804.22;5016330;28;49702;-65
2022/12/02 13:09:52;;;;;;;;;63.00;51.25;;;;;7.41;100.00;101788.22;5033583;28;49712;-64
2022/12/02 13:12:17;;;;;;;;;65.75;46.00;;;;;7.47;100.00;101792.88;5033656;28;52367;-65
2022/12/02 13:14:43;;;;;;;;;60.25;43.25;;;;;7.41;100.00;101785.63;5033490;28;54315;-64
2022/12/02 13:17:08;;;;;;;;;68.75;53.25;;;;;7.26;100.00;101756.16;5050341;28;49792;-64
2022/12/02 13:19:33;;;;;;;;;57.25;46.25;;;;;7.32;100.00;101786.88;5052528;28;50009;-65
2022/12/02 13:21:59;;;;;;;;;70.00;54.00;;;;;7.21;100.00;101761.94;5052758;28;49731;-65
2022/12/02 13:24:24;;;;;;;;;70.50;54.75;;;;;7.19;100.00;101767.09;5052623;28;54378;-66
2022/12/02 13:26:49;;;;;;;;;69.25;50.00;;;;;7.24;100.00;101775.16;5052122;28;49844;-65
2022/12/02 13:29:15;;;;;;;;;69.75;52.25;;;;;7.18;100.00;101747.91;5034061;28;49826;-67
2022/12/02 13:31:40;;;;;;;;;76.25;54.25;;;;;7.11;100.00;101752.75;5036744;28;49754;-74
2022/12/02 13:34:05;;;;;;;;;75.25;56.25;;;;;7.25;100.00;101758.69;5038879;28;49954;-71
2022/12/02 13:36:31;;;;;;;;;66.00;52.25;;;;;7.18;100.00;101739.19;5042621;28;50019;-66
2022/12/02 13:38:56;;;;;;;;;69.50;54.25;;;;;7.37;100.00;101765.41;5034067;28;50312;-66
2022/12/02 13:41:21;;;;;;;;;64.75;47.50;;;;;7.32;100.00;101768.59;5043405;28;49967;-67
2022/12/02 13:43:47;;;;;;;;;61.75;47.50;;;;;7.13;100.00;101740.66;5050595;28;51515;-75
2022/12/02 13:46:13;;;;;;;;;72.00;54.00;;;;;7.22;100.00;101761.13;5020332;28;49820;-72
2022/12/02 13:48:38;;;;;;;;;64.75;49.25;;;;;7.22;100.00;101762.03;5051427;28;50434;-64
2022/12/02 13:51:04;;;;;;;;;66.50;54.00;;;;;7.20;100.00;101761.06;5051407;28;49875;-65
2022/12/02 13:53:29;;;;;;;;;68.50;54.25;;;;;7.15;100.00;101755.63;5052529;28;50016;-65
2022/12/02 13:55:54;;;;;;;;;73.00;54.50;;;;;7.24;100.00;101765.63;5034227;28;50146;-65
2022/12/02 13:58:20;;;;;;;;;67.00;51.50;;;;;7.12;100.00;101731.94;5052150;28;50883;-64
2022/12/02 14:00:45;;;;;;;;;74.50;55.50;;;;;7.09;100.00;101737.00;5052218;28;49890;-65
2022/12/02 14:03:11;;;;;;;;;70.50;52.50;;;;;7.18;100.00;101754.88;5051947;28;49979;-65
2022/12/02 14:05:36;;;;;;;;;68.00;54.00;;;;;7.11;100.00;101744.91;5052216;28;49769;-69
2022/12/02 14:08:02;;;;;;;;;66.75;52.25;;;;;7.03;100.00;101712.31;5052234;28;50282;-67
2022/12/02 14:10:28;;;;;;;;;70.00;52.00;;;;;7.08;100.00;101724.78;5052041;28;49665;-73
2022/12/02 14:12:55;;;;;;;;;69.50;53.25;;;;;7.11;100.00;101695.31;5052268;28;49676;-67
2022/12/02 14:15:21;;;;;;;;;65.75;52.75;;;;;7.11;100.00;101706.66;5052428;28;49878;-68
2022/12/02 14:17:46;;;;;;;;;67.00;51.00;;;;;7.27;100.00;101710.03;5033339;28;51542;-65
2022/12/02 14:20:11;;;;;;;;;63.75;52.00;;;;;7.27;100.00;101720.47;5051999;28;49726;-65
2022/12/02 14:22:37;;;;;;;;;64.75;50.50;;;;;7.05;100.00;101697.63;5052024;28;50261;-65
2022/12/02 14:25:02;;;;;;;;;66.25;52.00;;;;;6.77;100.00;101638.81;5052140;28;49876;-65
2022/12/02 14:27:28;;;;;;;;;67.00;51.25;;;;;7.23;100.00;101731.56;5051952;28;49768;-65
2022/12/02 14:29:53;;;;;;;;;65.75;52.50;;;;;7.18;100.00;101708.75;5051822;28;49641;-72
2022/12/02 14:32:19;;;;;;;;;61.50;46.75;;;;;7.23;100.00;101721.13;5034202;28;49768;-70
2022/12/02 14:34:44;;;;;;;;;59.50;45.75;;;;;6.86;100.00;101704.53;5038150;28;49950;-65
2022/12/02 14:37:09;;;;;;;;;62.25;46.00;;;;;7.09;100.00;101726.56;5032085;28;56006;-65
2022/12/02 14:39:35;;;;;;;;;65.25;49.25;;;;;7.03;100.00;101718.41;5032426;28;49787;-67
2022/12/02 14:42:00;;;;;;;;;58.50;41.25;;;;;6.91;100.00;101716.91;5032536;28;50303;-66
2022/12/02 14:44:25;;;;;;;;;74.00;55.25;;;;;7.01;100.00;101716.56;5032710;28;50271;-65
2022/12/02 14:46:51;;;;;;;;;61.75;48.75;;;;;6.79;100.00;101667.59;5035630;28;50348;-68
2022/12/02 14:49:16;;;;;;;;;55.50;47.00;;;;;7.07;100.00;101711.66;5032638;28;49753;-66
2022/12/02 14:51:42;;;;;;;;;63.25;49.50;;;;;6.92;100.00;101693.50;5032303;28;49956;-65
2022/12/02 14:54:07;;;;;;;;;66.50;53.00;;;;;6.69;100.00;101658.41;5032224;28;49995;-65
2022/12/02 14:56:33;;;;;;;;;63.25;49.25;;;;;6.89;100.00;101691.63;5031963;28;50477;-66
2022/12/02 14:58:58;;;;;;;;;61.00;46.00;;;;;7.02;100.00;101705.28;5032076;28;50005;-67
2022/12/02 15:01:23;;;;;;;;;60.75;44.00;;;;;6.86;100.00;101699.31;5034604;28;56276;-65
2022/12/02 15:03:49;;;;;;;;;65.50;48.00;;;;;6.91;100.00;101712.59;5031857;28;49817;-64
2022/12/02 15:06:14;;;;;;;;;59.50;47.00;;;;;6.81;100.00;101694.66;5032484;28;49518;-65
2022/12/02 15:08:40;;;;;;;;;57.25;47.00;;;;;6.81;100.00;101705.09;5035053;28;49782;-65
2022/12/02 15:11:05;;;;;;;;;59.75;44.75;;;;;6.60;100.00;101679.72;5040137;28;49870;-66
2022/12/02 15:13:31;;;;;;;;;53.25;42.25;;;;;6.72;100.00;101700.31;5041230;28;49591;-66
2022/12/02 15:15:56;;;;;;;;;58.00;46.00;;;;;6.79;100.00;101723.31;5036314;28;49722;-67
2022/12/02 15:18:21;;;;;;;;;51.00;38.75;;;;;6.47;100.00;101671.19;5032593;28;49726;-67
2022/12/02 15:20:47;;;;;;;;;50.00;43.00;;;;;6.66;100.00;101688.66;5033311;28;49741;-67
2022/12/02 15:23:12;;;;;;;;;61.50;48.50;;;;;6.74;100.00;101718.66;5042193;28;49666;-67
2022/12/02 15:25:38;;;;;;;;;70.75;51.50;;;;;6.55;100.00;101675.97;5035085;28;52692;-67
2022/12/02 15:28:03;;;;;;;;;61.50;45.25;;;;;6.60;100.00;101694.47;5033275;28;49706;-69
2022/12/02 15:30:28;;;;;;;;;58.50;43.00;;;;;6.71;100.00;101692.41;5042599;28;49761;-67
2022/12/02 15:32:54;;;;;;;;;64.75;51.00;;;;;6.71;100.00;101705.47;5051146;28;49680;-69
2022/12/02 15:35:19;;;;;;;;;61.50;47.25;;;;;6.52;100.00;101686.25;5054022;28;50721;-67
2022/12/02 15:37:45;;;;;;;;;62.75;50.00;;;;;6.49;100.00;101693.94;5053984;28;49769;-71
2022/12/02 15:40:11;;;;;;;;;61.25;49.75;;;;;6.69;100.00;101714.94;5052559;28;49649;-67
2022/12/02 15:42:37;;;;;;;;;59.75;44.25;;;;;6.49;100.00;101703.47;5042563;28;50590;-68
2022/12/02 15:45:03;;;;;;;;;57.25;41.00;;;;;6.51;100.00;101710.53;5045351;28;50747;-68
2022/12/02 15:47:28;;;;;;;;;67.00;50.50;;;;;6.48;100.00;101709.50;5030947;28;49808;-67
2022/12/02 15:49:53;;;;;;;;;55.25;42.25;;;;;6.44;100.00;101707.53;5034387;28;49784;-69
2022/12/02 15:52:19;;;;;;;;;58.00;44.00;;;;;6.54;100.00;101710.69;5031320;28;49905;-67
2022/12/02 15:54:44;;;;;;;;;59.00;46.25;;;;;6.43;100.00;101704.03;5031226;28;49905;-70
2022/12/02 15:57:09;;;;;;;;;55.25;42.75;;;;;6.21;100.00;101678.53;5031482;28;49692;-68
2022/12/02 15:59:35;;;;;;;;;52.25;41.25;;;;;6.43;100.00;101718.78;5031431;28;49740;-69
2022/12/02 16:02:00;;;;;;;;;56.25;42.00;;;;;6.42;100.00;101709.16;5036358;28;49915;-72
2022/12/02 16:04:25;;;;;;;;;54.75;43.50;;;;;6.26;100.00;101708.34;5030862;28;50269;-68
2022/12/02 16:06:52;;;;;;;;;53.75;38.50;;;;;6.21;100.00;101694.19;5041078;28;49888;-70
2022/12/02 16:09:18;;;;;;;;;52.50;44.00;;;;;6.33;100.00;101714.78;5037262;28;49981;-72
2022/12/02 16:11:43;;;;;;;;;53.00;44.00;;;;;6.00;100.00;101667.88;5036175;28;49963;-69
2022/12/02 16:14:08;;;;;;;;;43.75;33.25;;;;;6.30;100.00;101715.53;5014546;28;51421;-73
2022/12/02 16:16:34;;;;;;;;;40.00;37.25;;;;;6.36;100.00;101724.47;5051192;28;49884;-69
2022/12/02 16:18:59;;;;;;;;;46.25;39.50;;;;;6.32;100.00;101710.41;5035488;28;49910;-70
2022/12/02 16:21:25;;;;;;;;;49.75;41.00;;;;;6.21;100.00;101691.56;5032933;28;49692;-71
2022/12/02 16:23:50;;;;;;;;;59.00;40.50;;;;;6.37;100.00;101718.44;5034545;28;55772;-70
2022/12/02 16:26:15;;;;;;;;;38.50;36.00;;;;;6.21;100.00;101680.25;5042499;28;50130;-69
2022/12/02 16:28:42;;;;;;;;;49.25;39.25;;;;;6.34;100.00;101705.25;5032856;28;49846;-70
2022/12/02 16:31:07;;;;;;;;;57.00;43.25;;;;;6.43;100.00;101726.59;5036514;28;49809;-71
2022/12/02 16:33:33;;;;;;;;;58.00;45.50;;;;;5.85;100.00;101640.94;5041885;28;51331;-70
2022/12/02 16:35:58;;;;;;;;;45.25;41.00;;;;;6.11;100.00;101733.63;5036492;28;49868;-70
2022/12/02 16:38:24;;;;;;;;;51.00;41.75;;;;;6.02;100.00;101696.63;5049534;28;51274;-75
2022/12/02 16:40:49;;;;;;;;;51.25;39.00;;;;;6.02;100.00;101696.63;5030446;28;49811;-70
2022/12/02 16:43:14;;;;;;;;;42.25;33.25;;;;;6.16;100.00;101737.34;5039433;28;49792;-66
2022/12/02 16:45:39;;;;;;;;;53.00;44.50;;;;;6.07;100.00;101723.81;5032852;28;61522;-72
2022/12/02 16:48:05;;;;;;;;;48.00;39.75;;;;;5.71;100.00;101660.16;5038211;28;49769;-73
2022/12/02 16:50:31;;;;;;;;;62.00;42.75;;;;;5.59;100.00;101662.97;5023842;28;50137;-73
2022/12/02 16:52:56;;;;;;;;;49.00;41.25;;;;;5.61;100.00;101692.63;5038366;28;50315;-72
2022/12/02 16:55:21;;;;;;;;;38.75;35.00;;;;;5.77;100.00;101746.44;5014319;28;49536;-73
2022/12/02 16:57:47;;;;;;;;;46.25;41.25;;;;;5.57;100.00;101721.00;5031600;28;50586;-70
2022/12/02 17:00:12;;;;;;;;;40.25;34.50;;;;;5.60;100.00;101732.50;5030080;28;49671;-76
2022/12/02 17:02:40;;;;;;;;;50.00;37.25;;;;;5.16;100.00;101663.19;5029701;28;50541;-73
2022/12/02 17:05:06;;;;;;;;;41.75;35.00;;;;;5.46;100.00;101749.03;5042171;28;49861;-75
2022/12/02 17:07:31;;;;;;;;;56.25;41.50;;;;;5.49;100.00;101745.72;5040346;28;49995;-75
2022/12/02 17:09:57;;;;;;;;;46.25;36.50;;;;;5.57;100.00;101742.72;5039512;28;49915;-74
2022/12/02 17:12:22;;;;;;;;;60.75;42.25;;;;;5.41;100.00;101721.88;5017674;28;52391;-74
2022/12/02 17:14:48;;;;;;;;;49.50;39.75;;;;;5.44;100.00;101727.25;5034849;28;49620;-72
2022/12/02 17:17:13;;;;;;;;;44.75;39.00;;;;;5.40;100.00;101718.38;5038042;28;49816;-80
2022/12/02 17:19:38;;;;;;;;;45.25;37.75;;;;;5.53;100.00;101742.50;5039285;28;49697;-71
2022/12/02 17:22:04;;;;;;;;;47.00;38.25;;;;;5.38;100.00;101713.84;5039704;28;49836;-71
2022/12/02 17:24:29;;;;;;;;;41.75;35.00;;;;;5.52;100.00;101738.09;5043221;28;49888;-77
2022/12/02 17:26:54;;;;;;;;;46.00;39.50;;;;;5.52;100.00;101739.00;5043438;28;49930;-76
2022/12/02 17:29:20;;;;;;;;;31.25;24.50;;;;;5.50;100.00;101727.59;5034861;28;50556;-79
2022/12/02 17:31:45;;;;;;;;;24.25;22.00;;;;;5.45;100.00;101735.13;5037177;28;50649;-73
2022/12/02 17:34:12;;;;;;;;;44.50;31.75;;;;;5.30;100.00;101728.13;5030480;28;49828;-71
2022/12/02 17:36:38;;;;;;;;;36.75;35.50;;;;;5.37;100.00;101736.41;5039285;28;49788;-72
2022/12/02 17:39:03;;;;;;;;;45.00;38.00;;;;;5.38;100.00;101742.50;5035886;28;49890;-71
2022/12/02 17:41:30;;;;;;;;;47.25;37.25;;;;;5.15;100.00;101715.16;5029082;28;50408;-71
2022/12/02 17:43:56;;;;;;;;;40.25;37.00;;;;;5.31;100.00;101735.16;5031664;28;50010;-72
2022/12/02 17:46:21;;;;;;;;;41.25;31.25;;;;;5.15;100.00;101717.75;5037411;28;49742;-74
2022/12/02 17:48:47;;;;;;;;;47.50;39.25;;;;;5.31;100.00;101745.59;5040728;28;50166;-72
2022/12/02 17:51:14;;;;;;;;;38.75;33.00;;;;;5.27;100.00;101736.69;5035198;28;49995;-73
2022/12/02 17:53:40;;;;;;;;;42.00;36.75;;;;;4.91;100.00;101703.31;5025407;28;49924;-69
2022/12/02 17:56:06;;;;;;;;;35.75;33.75;;;;;5.05;100.00;101728.44;5034741;28;49988;-66
2022/12/02 17:58:32;;;;;;;;;54.00;43.50;;;;;5.15;100.00;101735.97;5037196;28;49738;-66
2022/12/02 18:00:57;;;;;;;;;42.00;36.50;;;;;5.00;100.00;101707.34;5039749;28;49857;-74
2022/12/02 18:03:23;;;;;;;;;55.25;42.25;;;;;4.87;100.00;101700.53;5039166;28;50267;-76
2022/12/02 18:05:48;;;;;;;;;37.00;34.25;;;;;4.98;100.00;101711.56;5043166;28;49929;-73
2022/12/02 18:08:16;;;;;;;;;49.75;43.00;;;;;5.06;100.00;101718.13;5038375;28;49938;-73
2022/12/02 18:10:43;;;;;;;;;44.50;35.25;;;;;4.90;100.00;101686.81;5038955;28;49899;-78
2022/12/02 18:13:09;;;;;;;;;48.25;36.25;;;;;4.44;100.00;101602.59;5038876;28;49901;-73